Terminal Aerodrome Forecast
Issued by NWS

Home | Current Version | Previous Version | Text Only | Print | Product List | Glossary On
Versions: 1 2 3 4 5 6 7 8 9 10 11 12 13 14 15 16 17 18 19 20 21 22
369
FTUS46 KLOX 201240 AAB
TAFPMD
TAF AMD
KPMD 201240Z 2013/2112 25010G16KT P6SM -RA SCT030 SCT040 OVC090
     FM201400 23022G32KT P6SM VCSH BKN035 OVC060
     FM201600 21025G35KT 5SM RA BR BKN015 OVC035
     FM202300 25018G28KT 6SM -SHRA BR SCT017 OVC035
     FM210900 27025G35KT P6SM VCSH SCT020 OVC040=

USA.gov is the U.S. government's official web portal to all federal, state and local government web resources and services.